North Chili, NY (14514)

4:50 AM EDT on July 02, 2015 (GMT -0400)
Black Creek | | Change Station
CLOSE
Current Station
Personal Weather Station
Location: N Chili, NY
Elevation: 570 ft
Nearby Weather Stations

Elev 570 ft 43.08 °N, 77.79 °W | Updated 16 seconds ago

Overcast
Overcast
58.9 °F
Feels Like 58.9 °F
N
1.0
Wind Variable Wind from NW
Gusts 4.0 mph

Today
High -- | Low -- °F
--% Chance of Precip.
Yesterday
High -- | Low -- °F
Precip. -- in
5:35 AM 8:54 PM
Full, 100% visible
Pressure 29.92 in
Visibility 10.0 miles
Clouds Few 6500 ft
Mostly Cloudy 18000 ft
Overcast 25000 ft
Dew Point 57 °F
Humidity 94%
Rainfall 0.00 in
Snow Depth Not available.
UV 0 out of 12
Pollen 2.70 out of 12
Air Quality Not available.
Flu Activity Not available.
METAR KROC 020754Z 32006KT 10SM FEW065 BKN180 OVC250 16/13 A2992 RMK AO2 SLP132 T01610128

More Conditions Fewer Conditions

Pressure 29.92 in
Visibility 10.0 miles
Clouds Few 6500 ft
Mostly Cloudy 18000 ft
Overcast 25000 ft
Dew Point 57 °F
Humidity 94%
Rainfall 0.00 in
Snow Depth Not available.
UV 0 out of 12
Pollen 2.70 out of 12
Air Quality Not available.
Flu Activity Not available.
METAR KROC 020754Z 32006KT 10SM FEW065 BKN180 OVC250 16/13 A2992 RMK AO2 SLP132 T01610128

More Conditions Fewer Conditions

10-Day Weather Forecast

×

Almanac

Astronomy

Jul. 02, 2015 Rise Set
Actual Time
Civil Twilight
Nautical Twilight
Astronomical Twilight
Moon
Length of Visible Light
Length of Day
Tomorrow will be .
, % of the Moon is Illuminated

Today's Extremes

State Highs State Lows

Community

WunderPhotos

Upload Photos

1,834,423 photos uploaded!

WunderBlogs® & News

Nearby

Air Quality

  Air Quality AQ Index Pollutant
Not available.

Snow Depth

Station Depth Elevation

Earthquake Activity

City Distance Mag. Time & Date
Minimum magnitude displayed is 2.5.

Coastal Water Temperatures

Place Temperature

Stations

Nearby Weather Stations

Station Location Temp. Windchill Dew Point Humidity Wind Precip. Elev Updated Type